Two Rivers, Wisconsin
Current Conditions -  °F | °C
As of 12:41 AM on Saturday 25 Oct 2014 (Local Time) from KMTW Reporting Station
Broken Clouds Broken Clouds  
Wind Chill: 54°   Ceiling: 1900
Heat Index: 54°   Visibility: 9mi
Dew Point: 52°   Wind: 8mph
Humidity: 94%   Direction: 190°S
Pressure: 29.83"   Gusts: NA
Location:  44.15°N, 87.57°W
Report Text: KMTW 250541Z AUTO 19007KT 9SM BKN019 12/11 A2983 RMK AO2
Loading
Personal Weather Stations






























Interactive Weather Map
Tropical Storm Tracking
New forecast layout! Learn more

10-Day Weather Forecast

Advertisements
Track Severe Weather on mobile